Time;durP1;ratioP1;P1;durP2;ratioP2;P2;SDS_P1;SDS_P2;PMS_P1;PMS_P2;Temp;Humidity;BMP_temperature;BMP_pressure;BME280_temperature;BME280_humidity;BME280_pressure;Samples;Min_cycle;Max_cycle;Signal;HPM_P1;HPM_P2
2021/06/14 00:00:24;;;;;;;22.30;12.85;;;;;;;9.79;71.99;101423.41;1616144;88;21039;-70
2021/06/14 00:02:52;;;;;;;20.25;12.63;;;;;;;9.75;72.03;101425.99;1615949;88;21062;-70
2021/06/14 00:05:31;;;;;;;21.93;13.13;;;;;;;9.72;72.05;101423.61;1615868;88;21153;-70
2021/06/14 00:07:59;;;;;;;19.90;9.90;;;;;;;9.66;72.06;101421.03;1601409;88;21508;-70
2021/06/14 00:10:27;;;;;;;20.15;9.93;;;;;;;9.66;72.08;101424.17;1616123;88;21078;-70
2021/06/14 00:12:54;;;;;;;18.70;9.38;;;;;;;9.62;72.13;101420.95;1616110;88;21526;-70
2021/06/14 00:15:20;;;;;;;19.95;9.30;;;;;;;9.54;72.17;101424.30;1615707;88;21293;-70
2021/06/14 00:17:46;;;;;;;22.93;10.25;;;;;;;9.49;72.24;101417.23;1616020;88;21091;-70
2021/06/14 00:20:13;;;;;;;21.25;11.30;;;;;;;9.47;72.33;101423.17;1615914;88;21065;-70
2021/06/14 00:22:41;;;;;;;23.85;12.03;;;;;;;9.48;72.42;101419.53;1615922;88;21055;-70
2021/06/14 00:25:09;;;;;;;24.02;14.00;;;;;;;9.41;72.47;101413.08;1616146;88;21059;-70
2021/06/14 00:27:35;;;;;;;26.00;13.90;;;;;;;9.37;72.51;101410.33;1615818;88;21264;-70
2021/06/14 00:30:01;;;;;;;21.45;12.93;;;;;;;9.37;72.59;101407.67;1616193;88;21043;-70
2021/06/14 00:32:27;;;;;;;24.95;12.55;;;;;;;9.39;72.64;101409.69;1615926;88;21582;-70
2021/06/14 00:34:53;;;;;;;22.17;12.37;;;;;;;9.37;72.65;101414.81;1616007;88;21027;-70
2021/06/14 00:37:19;;;;;;;25.27;11.60;;;;;;;9.31;72.71;101417.55;1615849;88;21042;-70
2021/06/14 00:39:45;;;;;;;22.10;11.40;;;;;;;9.27;72.74;101418.80;1615988;88;21184;-70
2021/06/14 00:42:12;;;;;;;22.17;10.63;;;;;;;9.19;72.76;101417.30;1615993;88;21035;-70
2021/06/14 00:44:38;;;;;;;21.12;9.15;;;;;;;9.16;72.80;101418.89;1616243;88;21119;-69
2021/06/14 00:47:04;;;;;;;17.20;8.90;;;;;;;9.15;72.83;101425.19;1615912;88;21130;-70
2021/06/14 00:49:30;;;;;;;16.95;8.40;;;;;;;9.11;72.89;101412.31;1615841;88;21274;-70
2021/06/14 00:51:56;;;;;;;18.42;10.35;;;;;;;9.07;72.95;101412.22;1615884;88;21188;-69
2021/06/14 00:54:22;;;;;;;21.15;12.53;;;;;;;9.05;73.05;101412.34;1615769;88;21090;-70
2021/06/14 00:56:48;;;;;;;23.45;12.25;;;;;;;9.07;73.12;101411.74;1616152;88;21078;-70
2021/06/14 00:59:14;;;;;;;23.62;13.62;;;;;;;9.10;73.18;101407.48;1594293;88;21062;-70
2021/06/14 01:01:41;;;;;;;20.77;13.15;;;;;;;9.12;73.21;101410.83;1615869;88;21097;-69
2021/06/14 01:04:07;;;;;;;26.80;14.33;;;;;;;9.10;73.26;101405.30;1615999;88;21185;-70
2021/06/14 01:06:33;;;;;;;24.15;14.35;;;;;;;9.05;73.31;101405.69;1615798;88;21527;-70
2021/06/14 01:08:59;;;;;;;22.55;13.38;;;;;;;9.02;73.39;101417.45;1616234;88;21629;-70
2021/06/14 01:11:50;;;;;;;24.10;13.18;;;;;;;8.98;73.38;101410.72;1615906;88;21023;-70
2021/06/14 01:14:25;;;;;;;24.27;12.85;;;;;;;8.91;73.42;101412.72;1615953;88;21621;-70
2021/06/14 01:17:35;;;;;;;18.75;10.75;;;;;;;8.83;73.47;101405.92;1615912;88;21185;-70
2021/06/14 01:20:37;;;;;;;18.17;9.78;;;;;;;8.78;73.52;101410.30;1616035;88;21092;-70
2021/06/14 01:23:31;;;;;;;16.62;9.38;;;;;;;8.77;73.58;101411.75;1615581;88;21618;-70
2021/06/14 01:26:03;;;;;;;16.25;8.80;;;;;;;8.74;73.66;101402.71;1616030;88;21559;-70
2021/06/14 01:28:30;;;;;;;22.87;12.03;;;;;;;8.72;73.75;101412.66;1616029;88;21607;-70
2021/06/14 01:30:56;;;;;;;20.57;13.05;;;;;;;8.70;73.80;101416.76;1616173;88;21237;-69
2021/06/14 01:33:25;;;;;;;21.50;12.03;;;;;;;8.68;73.86;101417.88;1616037;88;21063;-70
2021/06/14 01:50:46;;;;;;;21.55;13.85;;;;;;;8.48;74.19;101401.81;1799079;79;22742;-67
2021/06/14 01:53:14;;;;;;;20.80;11.90;;;;;;;8.38;74.23;101412.03;1759539;81;21050;-68
2021/06/14 01:55:40;;;;;;;21.97;11.03;;;;;;;8.32;74.23;101408.10;1759607;81;21016;-69
2021/06/14 01:58:06;;;;;;;17.40;10.45;;;;;;;8.30;74.27;101414.02;1759476;81;20982;-70
2021/06/14 02:00:32;;;;;;;21.07;9.90;;;;;;;8.27;74.32;101410.77;1759377;81;21475;-70
2021/06/14 02:02:58;;;;;;;17.42;9.85;;;;;;;8.24;74.41;101411.85;1740541;81;21007;-70
2021/06/14 02:05:26;;;;;;;19.67;10.43;;;;;;;8.27;74.47;101410.26;1759617;81;21023;-70
2021/06/14 02:07:52;;;;;;;20.20;10.85;;;;;;;8.31;74.53;101411.72;1759484;81;21135;-70
2021/06/14 02:10:20;;;;;;;20.05;11.75;;;;;;;8.33;74.61;101411.12;1759541;81;21010;-70
2021/06/14 02:12:46;;;;;;;17.52;11.57;;;;;;;8.35;74.67;101411.82;1759033;81;21019;-70
2021/06/14 02:15:14;;;;;;;21.42;12.68;;;;;;;8.36;74.74;101405.54;1759617;81;21042;-70
2021/06/14 02:17:40;;;;;;;19.42;12.85;;;;;;;8.34;74.79;101402.16;1759553;81;21093;-70
2021/06/14 02:20:08;;;;;;;22.17;12.13;;;;;;;8.33;74.81;101396.98;1759366;80;21754;-70
2021/06/14 02:22:35;;;;;;;27.67;12.40;;;;;;;8.26;74.86;101399.30;1759581;81;20994;-70
2021/06/14 02:25:04;;;;;;;23.80;13.22;;;;;;;8.25;74.90;101400.26;1759292;81;20990;-70
2021/06/14 02:27:30;;;;;;;24.18;13.30;;;;;;;8.21;74.93;101396.17;1758527;81;21038;-70
2021/06/14 02:29:56;;;;;;;18.90;11.70;;;;;;;8.18;74.97;101399.09;1759072;81;21070;-70
2021/06/14 02:32:22;;;;;;;19.48;10.50;;;;;;;8.15;75.00;101393.20;1759574;81;21034;-69
2021/06/14 02:34:48;;;;;;;15.08;9.70;;;;;;;8.14;75.05;101399.47;1759356;80;21050;-69
2021/06/14 02:37:14;;;;;;;15.68;8.50;;;;;;;8.13;75.06;101403.13;1759518;81;21537;-69
2021/06/14 02:39:40;;;;;;;20.43;8.85;;;;;;;8.14;75.10;101402.13;1759626;81;20992;-70
2021/06/14 02:42:07;;;;;;;16.23;8.65;;;;;;;8.12;75.14;101403.61;1759255;80;21023;-70
2021/06/14 02:44:33;;;;;;;19.25;10.55;;;;;;;8.14;75.21;101401.65;1759575;81;21818;-70
2021/06/14 02:47:05;;;;;;;18.60;11.57;;;;;;;8.21;75.27;101391.34;1757414;81;21070;-70
2021/06/14 02:49:32;;;;;;;21.52;12.60;;;;;;;8.30;75.33;101392.75;1756373;81;21100;-70
2021/06/14 02:51:58;;;;;;;21.20;11.75;;;;;;;8.33;75.37;101387.20;1761899;81;21018;-70
2021/06/14 02:54:29;;;;;;;24.20;14.80;;;;;;;8.37;75.46;101391.25;1761860;81;21108;-70
2021/06/14 02:56:57;;;;;;;26.93;14.18;;;;;;;8.41;75.46;101387.37;1761874;81;21238;-70
2021/06/14 02:59:24;;;;;;;24.60;12.85;;;;;;;8.46;75.47;101382.51;1761688;81;21350;-70
2021/06/14 03:01:50;;;;;;;19.10;13.15;;;;;;;8.42;75.49;101381.56;1761337;81;21022;-70
2021/06/14 03:04:18;;;;;;;22.10;12.28;;;;;;;8.43;75.52;101375.28;1761290;81;21069;-70
2021/06/14 03:06:45;;;;;;;22.87;12.75;;;;;;;8.48;75.51;101377.89;1761499;81;21085;-70
2021/06/14 03:09:11;;;;;;;27.27;12.23;;;;;;;8.57;75.53;101377.59;1761153;81;21106;-70
2021/06/14 03:11:42;;;;;;;30.70;10.00;;;;;;;8.64;75.57;101377.90;1761375;81;21077;-70
2021/06/14 03:14:08;;;;;;;18.80;9.70;;;;;;;8.67;75.56;101377.62;1761441;81;21007;-70
2021/06/14 03:16:34;;;;;;;15.43;10.28;;;;;;;8.69;75.62;101377.84;1720515;82;21529;-70
2021/06/14 03:19:02;;;;;;;22.65;11.55;;;;;;;8.76;75.67;101382.98;1705732;82;21027;-70
2021/06/14 03:21:30;;;;;;;24.07;13.18;;;;;;;8.83;75.72;101373.48;1730967;82;21150;-70
2021/06/14 03:23:56;;;;;;;23.95;12.70;;;;;;;8.98;75.83;101376.62;1730996;82;21006;-70
2021/06/14 03:26:30;;;;;;;23.60;13.00;;;;;;;9.28;75.98;101374.39;1730156;82;21550;-70
2021/06/14 03:28:56;;;;;;;26.05;12.75;;;;;;;9.88;76.24;101363.97;1728078;82;21554;-71
2021/06/14 03:31:22;;;;;;;24.65;12.35;;;;;;;10.96;76.19;101365.20;1731134;82;21051;-70
2021/06/14 03:33:49;;;;;;;21.48;12.28;;;;;;;11.92;75.92;101373.89;1731227;82;21104;-70
2021/06/14 03:36:16;;;;;;;19.35;11.12;;;;;;;12.73;75.64;101361.03;1731086;82;21057;-71
2021/06/14 03:38:50;;;;;;;19.25;11.15;;;;;;;13.58;75.25;101353.28;1730952;82;21549;-71
2021/06/14 03:41:18;;;;;;;19.40;12.03;;;;;;;14.30;74.79;101359.95;1731083;82;21031;-71
2021/06/14 03:43:44;;;;;;;19.35;11.45;;;;;;;14.99;74.27;101355.72;1730216;82;21183;-71
2021/06/14 03:46:10;;;;;;;19.75;11.25;;;;;;;15.67;73.64;101352.31;1731031;82;21130;-71
2021/06/14 03:48:37;;;;;;;22.13;13.40;;;;;;;16.27;72.96;101354.48;1730637;82;21074;-71
2021/06/14 03:51:03;;;;;;;22.45;12.20;;;;;;;16.86;72.20;101351.81;1728484;82;21003;-71
2021/06/14 03:53:31;;;;;;;20.90;11.88;;;;;;;17.49;71.40;101364.09;1728539;82;21082;-71
2021/06/14 03:56:08;;;;;;;17.17;10.80;;;;;;;17.43;70.57;101358.12;1727968;83;21580;-71
2021/06/14 03:58:35;;;;;;;15.15;10.58;;;;;;;17.53;70.10;101363.19;1728468;83;21137;-71
2021/06/14 04:01:01;;;;;;;16.70;9.70;;;;;;;17.79;69.36;101358.61;1728248;82;21498;-71
2021/06/14 04:03:28;;;;;;;18.60;10.23;;;;;;;18.29;68.46;101369.22;1728441;82;21066;-71
2021/06/14 04:05:58;;;;;;;13.72;9.60;;;;;;;18.67;67.58;101366.17;1728231;83;21034;-71
2021/06/14 04:08:24;;;;;;;15.28;9.58;;;;;;;18.74;66.86;101364.34;1728493;82;21109;-71
2021/06/14 04:10:50;;;;;;;19.40;9.68;;;;;;;19.09;65.90;101363.27;1728368;82;21152;-71
2021/06/14 04:13:16;;;;;;;17.07;9.88;;;;;;;19.18;64.95;101362.03;1728270;82;21071;-71
2021/06/14 04:15:42;;;;;;;16.48;9.85;;;;;;;19.33;64.33;101364.08;1728536;82;21093;-71
2021/06/14 04:18:08;;;;;;;19.62;9.68;;;;;;;19.28;63.44;101359.78;1728201;82;21018;-71
2021/06/14 04:20:34;;;;;;;14.13;9.58;;;;;;;19.30;62.87;101361.78;1728642;82;21141;-71
2021/06/14 04:23:00;;;;;;;16.00;9.00;;;;;;;19.55;62.23;101365.31;1728239;83;21130;-71
2021/06/14 04:25:26;;;;;;;17.30;9.95;;;;;;;19.52;61.02;101367.08;1728342;82;21621;-71
2021/06/14 04:27:53;;;;;;;14.83;9.18;;;;;;;19.23;60.07;101366.84;1728228;83;21073;-71
2021/06/14 04:30:19;;;;;;;13.83;8.88;;;;;;;18.78;59.95;101366.45;1728116;83;21061;-71
2021/06/14 04:32:45;;;;;;;14.70;9.38;;;;;;;18.57;60.03;101365.70;1728391;83;21026;-71
2021/06/14 04:35:12;;;;;;;17.92;8.28;;;;;;;18.18;60.28;101368.41;1728208;82;21111;-71
2021/06/14 04:37:38;;;;;;;19.48;9.45;;;;;;;18.07;60.34;101368.94;1728501;83;21031;-71
2021/06/14 04:40:06;;;;;;;14.83;9.08;;;;;;;18.24;60.29;101366.27;1728221;82;21522;-71
2021/06/14 04:42:32;;;;;;;15.05;9.05;;;;;;;18.31;60.19;101364.95;1728353;82;21078;-71
2021/06/14 04:44:58;;;;;;;16.90;8.35;;;;;;;18.48;59.99;101361.76;1728519;83;21034;-71
2021/06/14 04:47:24;;;;;;;15.10;8.50;;;;;;;18.42;59.75;101362.55;1728462;83;21156;-71
2021/06/14 04:49:50;;;;;;;18.98;9.25;;;;;;;18.43;59.62;101368.29;1728180;82;21530;-71
2021/06/14 04:52:16;;;;;;;14.35;8.40;;;;;;;18.61;59.38;101363.76;1728371;82;21518;-71
2021/06/14 04:54:42;;;;;;;14.30;9.15;;;;;;;18.66;59.12;101365.33;1728445;83;21063;-71
2021/06/14 04:57:08;;;;;;;12.78;8.95;;;;;;;18.71;58.94;101364.74;1727957;82;21062;-71
2021/06/14 04:59:34;;;;;;;14.93;8.60;;;;;;;18.96;58.73;101360.52;1728398;83;21252;-71
2021/06/14 05:02:01;;;;;;;19.62;12.47;;;;;;;19.09;58.49;101365.13;1727979;83;21002;-71
2021/06/14 05:04:27;;;;;;;12.82;7.90;;;;;;;19.16;58.24;101365.98;1728401;83;21673;-71
2021/06/14 05:06:53;;;;;;;13.85;9.65;;;;;;;19.20;57.97;101364.04;1728421;83;21507;-71
2021/06/14 05:09:19;;;;;;;17.52;11.05;;;;;;;19.23;57.76;101364.98;1728416;83;21037;-71
2021/06/14 05:11:47;;;;;;;20.48;11.00;;;;;;;19.28;57.54;101367.89;1728321;83;21128;-71
2021/06/14 05:14:15;;;;;;;15.88;9.25;;;;;;;19.46;57.35;101367.91;1728234;82;21034;-71
2021/06/14 05:16:43;;;;;;;16.12;9.48;;;;;;;19.62;57.18;101356.69;1728603;83;21018;-71
2021/06/14 05:19:09;;;;;;;15.75;9.20;;;;;;;19.61;56.85;101360.42;1728171;83;21090;-71
2021/06/14 05:21:35;;;;;;;15.88;9.35;;;;;;;19.68;56.60;101358.56;1728370;83;21077;-71
2021/06/14 05:24:02;;;;;;;16.15;9.25;;;;;;;19.77;56.39;101358.70;1727630;83;21036;-71
2021/06/14 05:26:28;;;;;;;17.65;9.45;;;;;;;19.77;56.15;101359.50;1728199;83;21495;-71
2021/06/14 05:28:54;;;;;;;20.05;13.22;;;;;;;19.83;55.92;101357.34;1728040;83;21560;-71
2021/06/14 05:31:20;;;;;;;19.82;12.35;;;;;;;20.04;55.86;101354.95;1728281;83;21019;-71
2021/06/14 05:33:46;;;;;;;13.10;8.93;;;;;;;20.17;55.60;101357.65;1728381;83;21003;-72
2021/06/14 05:36:12;;;;;;;14.75;9.40;;;;;;;20.19;55.39;101360.16;1727871;82;21070;-71
2021/06/14 05:38:38;;;;;;;15.83;10.40;;;;;;;20.10;55.21;101357.33;1728409;83;21019;-71
2021/06/14 05:41:07;;;;;;;18.48;11.18;;;;;;;20.12;55.03;101360.17;1728432;82;21065;-71
2021/06/14 05:43:33;;;;;;;18.30;9.40;;;;;;;20.17;54.82;101359.00;1728210;83;21057;-71
2021/06/14 05:46:00;;;;;;;16.02;9.48;;;;;;;20.16;54.76;101353.27;1727614;82;21030;-71
2021/06/14 05:48:26;;;;;;;17.02;9.38;;;;;;;20.20;54.62;101346.39;1727847;83;21183;-71
2021/06/14 05:50:52;;;;;;;20.08;10.32;;;;;;;20.15;54.45;101353.48;1724984;82;21011;-71
2021/06/14 05:53:19;;;;;;;14.43;10.00;;;;;;;20.19;54.32;101354.23;1722540;83;21015;-71
2021/06/14 05:55:45;;;;;;;18.20;9.68;;;;;;;20.33;54.22;101351.84;1722757;83;21070;-71
2021/06/14 05:58:11;;;;;;;16.17;9.48;;;;;;;20.31;54.09;101351.20;1722421;83;21067;-71
2021/06/14 06:00:37;;;;;;;14.58;8.70;;;;;;;20.30;53.84;101352.80;1724380;81;21138;-71
2021/06/14 06:03:04;;;;;;;12.85;8.20;;;;;;;20.20;53.77;101353.16;1722783;81;20998;-71
2021/06/14 06:05:30;;;;;;;18.10;8.50;;;;;;;20.28;53.79;101355.70;1722284;83;21070;-71
2021/06/14 06:07:56;;;;;;;22.02;13.98;;;;;;;20.49;53.65;101355.14;1724982;81;21027;-71
2021/06/14 06:10:22;;;;;;;20.97;9.70;;;;;;;20.49;53.60;101357.84;1752437;81;21037;-71
2021/06/14 06:12:48;;;;;;;15.38;10.08;;;;;;;20.64;53.49;101361.16;1744190;81;21067;-71
2021/06/14 06:15:17;;;;;;;14.23;8.08;;;;;;;20.75;53.35;101356.45;1737612;81;21018;-71
2021/06/14 06:17:43;;;;;;;12.07;7.15;;;;;;;20.77;53.08;101363.83;1722803;81;21063;-71
2021/06/14 06:20:11;;;;;;;12.98;9.18;;;;;;;20.73;53.01;101366.13;1752623;81;21542;-71
2021/06/14 06:22:39;;;;;;;15.23;8.10;;;;;;;20.77;52.69;101362.48;1745957;81;21610;-71
2021/06/14 06:25:10;;;;;;;12.60;7.55;;;;;;;20.76;52.55;101363.52;1722833;83;21222;-71
2021/06/14 06:27:36;;;;;;;12.18;8.50;;;;;;;20.77;52.39;101371.97;1730930;81;21496;-71
2021/06/14 06:30:04;;;;;;;15.55;8.65;;;;;;;20.70;52.19;101371.15;1687069;84;22168;-71
2021/06/14 06:32:30;;;;;;;16.30;8.35;;;;;;;20.66;52.04;101374.80;1688264;84;21085;-71
2021/06/14 06:34:56;;;;;;;14.47;8.05;;;;;;;20.73;51.89;101371.55;1695226;84;21079;-71
2021/06/14 06:37:22;;;;;;;12.40;8.08;;;;;;;20.84;51.81;101372.78;1695384;84;21162;-71
2021/06/14 06:39:48;;;;;;;12.20;7.17;;;;;;;20.97;51.71;101374.08;1695310;84;21496;-71
2021/06/14 06:42:14;;;;;;;15.98;7.55;;;;;;;20.86;51.52;101376.94;1695337;84;21031;-71
2021/06/14 06:44:40;;;;;;;12.43;7.25;;;;;;;20.85;51.41;101378.52;1695238;84;21059;-71
2021/06/14 06:47:06;;;;;;;9.80;6.70;;;;;;;20.96;51.11;101380.58;1695396;84;21011;-71
2021/06/14 06:49:32;;;;;;;12.90;6.92;;;;;;;21.05;50.81;101384.70;1695399;84;21119;-71
2021/06/14 06:51:59;;;;;;;11.38;7.65;;;;;;;21.10;50.66;101383.58;1686352;84;21089;-71
2021/06/14 06:54:25;;;;;;;13.43;7.70;;;;;;;21.15;50.40;101386.46;1663977;84;21373;-71
2021/06/14 06:56:53;;;;;;;13.98;8.80;;;;;;;20.96;49.98;101391.42;1701614;84;21033;-71
2021/06/14 06:59:20;;;;;;;11.48;7.60;;;;;;;20.83;49.95;101384.66;1693488;84;21085;-71
2021/06/14 07:01:46;;;;;;;13.50;7.50;;;;;;;20.82;49.82;101385.73;1674077;85;21931;-71
2021/06/14 07:04:13;;;;;;;10.43;6.53;;;;;;;20.84;49.71;101384.98;1674085;85;21066;-71
2021/06/14 07:06:39;;;;;;;13.03;7.95;;;;;;;20.59;49.60;101388.05;1675712;84;21132;-71
2021/06/14 07:09:05;;;;;;;16.15;7.80;;;;;;;20.68;49.60;101389.52;1674235;85;21546;-71
2021/06/14 07:11:31;;;;;;;13.83;6.87;;;;;;;20.86;49.52;101385.62;1673504;85;21009;-71
2021/06/14 07:13:57;;;;;;;12.58;7.33;;;;;;;21.00;49.43;101387.24;1675819;84;21144;-71
2021/06/14 07:16:24;;;;;;;11.85;7.22;;;;;;;21.00;49.21;101381.82;1682314;84;20994;-71
2021/06/14 07:18:52;;;;;;;14.45;7.08;;;;;;;21.10;49.17;101374.09;1698332;84;21070;-71
2021/06/14 07:21:19;;;;;;;11.50;7.13;;;;;;;21.12;49.10;101376.05;1702241;84;21042;-71
2021/06/14 07:23:45;;;;;;;13.90;7.45;;;;;;;21.24;48.93;101382.48;1693412;84;21074;-71
2021/06/14 07:26:11;;;;;;;12.88;6.72;;;;;;;21.40;48.89;101378.41;1684089;84;22005;-70
2021/06/14 07:28:37;;;;;;;15.10;6.97;;;;;;;21.50;48.80;101371.19;1681466;84;21514;-71
2021/06/14 07:31:04;;;;;;;15.05;6.08;;;;;;;21.48;48.69;101366.48;1664008;84;21050;-71
2021/06/14 07:33:31;;;;;;;13.88;6.83;;;;;;;21.48;48.55;101369.19;1696861;84;20998;-71
2021/06/14 07:35:57;;;;;;;12.40;6.80;;;;;;;21.56;48.64;101367.59;1684821;82;21497;-71
2021/06/14 07:38:23;;;;;;;12.78;7.50;;;;;;;21.60;48.64;101366.94;1704168;82;21341;-71
2021/06/14 07:40:49;;;;;;;12.55;7.20;;;;;;;21.70;48.55;101362.37;1655081;84;21037;-71
2021/06/14 07:43:17;;;;;;;18.32;8.78;;;;;;;21.80;48.40;101357.29;1686321;84;21105;-71
2021/06/14 07:45:44;;;;;;;25.17;15.53;;;;;;;21.82;48.20;101348.38;1702188;84;20934;-71
2021/06/14 07:48:11;;;;;;;13.55;7.70;;;;;;;21.84;48.14;101353.92;1698933;84;21058;-71
2021/06/14 07:50:38;;;;;;;14.60;7.22;;;;;;;21.70;48.09;101348.80;1700713;83;21306;-71
2021/06/14 07:53:04;;;;;;;11.22;7.00;;;;;;;21.67;48.08;101355.52;1696456;84;21085;-70
2021/06/14 07:55:31;;;;;;;15.25;7.12;;;;;;;21.76;48.01;101354.19;1696585;84;21010;-70
2021/06/14 07:57:57;;;;;;;14.75;6.95;;;;;;;21.88;47.98;101354.31;1696426;84;21014;-70
2021/06/14 08:00:24;;;;;;;13.13;7.53;;;;;;;22.09;47.86;101356.69;1696496;84;21103;-71
2021/06/14 08:02:50;;;;;;;15.08;8.75;;;;;;;22.12;47.51;101354.88;1696475;84;21394;-70
2021/06/14 08:05:16;;;;;;;17.85;8.28;;;;;;;21.86;47.61;101349.61;1696492;84;21015;-70
2021/06/14 08:07:42;;;;;;;13.40;6.92;;;;;;;21.88;47.68;101349.69;1696031;84;21065;-70
2021/06/14 08:10:13;;;;;;;12.98;7.90;;;;;;;22.22;47.77;101356.56;1696454;84;20992;-70
2021/06/14 08:12:45;;;;;;;13.70;6.70;;;;;;;22.35;47.59;101346.91;1696617;84;21035;-70
2021/06/14 08:15:12;;;;;;;13.30;7.65;;;;;;;22.48;47.50;101349.20;1696210;84;21489;-70
2021/06/14 08:17:38;;;;;;;11.03;6.47;;;;;;;22.68;47.45;101351.21;1696499;84;21445;-70
2021/06/14 08:20:33;;;;;;;12.45;7.92;;;;;;;22.60;47.06;101354.19;1696346;84;21648;-70
2021/06/14 08:25:35;;;;;;;11.25;5.30;;;;;;;22.56;46.79;101351.61;1696398;84;20934;-70
2021/06/14 08:28:01;;;;;;;13.10;6.20;;;;;;;22.60;46.46;101358.27;1696208;84;21578;-70
2021/06/14 08:30:27;;;;;;;12.58;6.67;;;;;;;22.59;46.16;101353.91;1696322;84;21021;-70
2021/06/14 08:32:54;;;;;;;10.55;6.25;;;;;;;22.58;46.05;101354.95;1696339;84;21014;-71
2021/06/14 08:35:23;;;;;;;10.23;5.37;;;;;;;22.46;45.74;101352.14;1696462;84;21073;-70
2021/06/14 08:37:49;;;;;;;11.10;6.10;;;;;;;22.45;45.65;101350.47;1696349;84;21090;-70
2021/06/14 08:40:18;;;;;;;12.85;6.55;;;;;;;22.36;45.23;101348.58;1696518;84;21709;-70
2021/06/14 08:42:44;;;;;;;11.63;6.27;;;;;;;22.35;45.45;101341.48;1696735;84;21014;-71
2021/06/14 08:45:11;;;;;;;12.50;6.80;;;;;;;22.60;45.38;101337.88;1696305;84;21057;-71
2021/06/14 08:47:39;;;;;;;13.40;6.55;;;;;;;22.73;45.28;101345.94;1696207;84;21471;-71
2021/06/14 08:50:10;;;;;;;14.60;6.62;;;;;;;22.59;45.21;101351.19;1696275;84;21053;-70
2021/06/14 08:52:37;;;;;;;12.47;6.30;;;;;;;22.13;45.29;101342.93;1721320;83;21639;-70
2021/06/14 08:55:05;;;;;;;10.05;6.60;;;;;;;21.61;45.22;101344.67;1724585;82;21476;-70
2021/06/14 08:57:31;;;;;;;11.93;6.85;;;;;;;21.16;45.29;101344.73;1724924;83;21071;-70
2021/06/14 08:59:57;;;;;;;12.18;7.28;;;;;;;21.00;45.47;101345.20;1724668;83;21500;-70
2021/06/14 09:02:23;;;;;;;11.57;6.58;;;;;;;21.39;45.68;101346.37;1724667;82;21079;-71
2021/06/14 09:04:50;;;;;;;13.00;6.25;;;;;;;21.79;45.61;101342.04;1724608;83;21436;-70
2021/06/14 09:07:16;;;;;;;14.43;6.70;;;;;;;22.14;45.52;101342.41;1724474;82;21042;-70
2021/06/14 09:09:42;;;;;;;13.03;6.42;;;;;;;22.22;45.03;101334.81;1724675;83;21026;-70
2021/06/14 09:12:09;;;;;;;13.40;6.65;;;;;;;21.91;44.96;101337.60;1724340;83;21472;-70
2021/06/14 09:14:40;;;;;;;10.78;6.50;;;;;;;22.11;45.08;101327.91;1724821;83;21054;-70
2021/06/14 09:17:17;;;;;;;14.30;6.92;;;;;;;22.13;44.92;101329.90;1724295;83;21380;-70
2021/06/14 09:19:55;;;;;;;10.05;6.42;;;;;;;21.66;44.77;101325.85;1724464;83;21632;-70
2021/06/14 09:22:25;;;;;;;13.25;6.83;;;;;;;21.32;44.96;101327.94;1724717;83;21074;-70
2021/06/14 09:25:00;;;;;;;13.05;6.08;;;;;;;21.46;45.21;101317.02;1713771;82;21480;-70
2021/06/14 09:27:39;;;;;;;10.60;7.08;;;;;;;21.71;45.25;101321.96;1710173;83;21039;-70
2021/06/14 09:30:22;;;;;;;10.28;5.60;;;;;;;21.97;45.04;101323.12;1709781;83;22036;-70
2021/06/14 09:32:54;;;;;;;11.08;6.03;;;;;;;22.10;44.88;101311.30;1718888;83;21062;-70
2021/06/14 09:35:21;;;;;;;12.35;6.90;;;;;;;22.23;44.67;101311.20;1720259;83;21058;-70
2021/06/14 09:38:03;;;;;;;14.13;6.85;;;;;;;22.36;44.48;101313.77;1724684;83;21015;-69
2021/06/14 09:40:39;;;;;;;12.28;6.45;;;;;;;22.50;44.49;101309.86;1724671;83;21118;-70
2021/06/14 09:43:07;;;;;;;14.23;6.75;;;;;;;22.64;44.30;101305.09;1723804;83;21229;-70
2021/06/14 09:45:40;;;;;;;11.05;7.03;;;;;;;22.53;44.18;101297.69;1712438;83;20984;-70
2021/06/14 09:48:19;;;;;;;16.48;8.45;;;;;;;22.54;44.38;101298.00;1695584;84;21030;-70
2021/06/14 09:50:46;;;;;;;11.28;7.42;;;;;;;22.74;44.32;101291.83;1695423;83;20986;-71
2021/06/14 09:53:18;;;;;;;13.98;6.60;;;;;;;22.96;44.30;101284.85;1714342;83;21035;-71
2021/06/14 09:55:46;;;;;;;13.93;8.28;;;;;;;23.09;44.27;101291.47;1715690;83;21681;-71
2021/06/14 09:58:22;;;;;;;15.28;6.58;;;;;;;23.11;44.26;101285.28;1698269;84;21054;-71
2021/06/14 10:00:57;;;;;;;18.77;6.62;;;;;;;23.22;44.13;101284.47;1710064;83;21011;-71
2021/06/14 10:03:26;;;;;;;12.88;6.47;;;;;;;23.24;44.11;101290.53;1697959;84;21054;-71
2021/06/14 10:05:55;;;;;;;10.68;5.65;;;;;;;23.06;44.01;101281.05;1698095;83;21030;-71
2021/06/14 10:08:31;;;;;;;9.43;5.70;;;;;;;22.85;43.69;101274.73;1698228;84;21571;-71
2021/06/14 10:11:13;;;;;;;9.95;5.85;;;;;;;22.75;43.37;101278.01;1698380;84;21492;-71
2021/06/14 10:13:44;;;;;;;11.80;5.75;;;;;;;22.51;42.72;101274.82;1700644;83;21734;-71
2021/06/14 10:16:15;;;;;;;9.58;5.60;;;;;;;22.37;42.65;101271.95;1727365;82;21087;-71
2021/06/14 10:18:47;;;;;;;12.20;7.00;;;;;;;22.31;42.61;101273.66;1725369;83;21110;-71
2021/06/14 10:21:31;;;;;;;13.35;7.67;;;;;;;22.36;42.70;101268.92;1713928;83;21370;-71
2021/06/14 10:24:05;;;;;;;10.15;6.20;;;;;;;22.62;42.74;101265.08;1725968;83;20992;-71
2021/06/14 10:26:32;;;;;;;11.57;6.65;;;;;;;22.90;42.66;101264.81;1727210;83;20923;-70
2021/06/14 10:28:58;;;;;;;11.73;6.30;;;;;;;22.97;42.59;101258.48;1717702;81;21050;-71
2021/06/14 10:31:24;;;;;;;13.48;6.67;;;;;;;23.00;42.62;101263.45;1670359;85;21018;-71
2021/06/14 10:33:53;;;;;;;10.40;6.40;;;;;;;22.93;42.58;101258.11;1675082;84;21675;-71
2021/06/14 10:36:26;;;;;;;11.30;7.00;;;;;;;22.77;42.64;101257.36;1679490;84;21038;-71
2021/06/14 10:38:53;;;;;;;12.82;6.30;;;;;;;22.62;42.53;101255.55;1692112;84;21106;-70
2021/06/14 10:41:21;;;;;;;10.53;5.25;;;;;;;22.75;42.65;101249.98;1680881;85;21062;-70
2021/06/14 10:43:48;;;;;;;9.15;6.17;;;;;;;22.74;42.65;101244.22;1696421;84;21054;-71
2021/06/14 10:46:15;;;;;;;11.83;6.12;;;;;;;22.83;42.72;101234.15;1680859;84;21642;-71
2021/06/14 10:48:42;;;;;;;8.68;5.60;;;;;;;22.87;42.76;101235.88;1697540;84;21910;-71
2021/06/14 10:51:17;;;;;;;14.65;6.15;;;;;;;22.84;42.42;101243.14;1680680;84;21039;-71
2021/06/14 10:53:50;;;;;;;7.35;5.08;;;;;;;22.57;41.91;101243.16;1680517;85;21093;-70
2021/06/14 10:56:14;;;;;;;7.70;4.97;;;;;;;22.46;41.83;101236.59;1680574;84;20933;-70
2021/06/14 10:58:43;;;;;;;10.00;5.28;;;;;;;22.40;41.70;101232.08;1681217;85;21459;-70
2021/06/14 11:01:12;;;;;;;8.35;5.47;;;;;;;22.38;41.50;101228.73;1680749;85;20994;-70
2021/06/14 11:03:40;;;;;;;;;;;;;;;22.38;41.37;101234.17;1683469;85;21060;-70
2021/06/14 11:06:29;;;;;;;7.78;4.92;;;;;;;22.39;41.39;101228.52;1681105;85;20447;-70
2021/06/14 11:08:57;;;;;;;10.60;5.62;;;;;;;22.44;41.38;101235.17;1681155;85;21048;-70
2021/06/14 11:11:24;;;;;;;11.68;5.95;;;;;;;22.50;41.48;101228.81;1681061;85;22124;-70
2021/06/14 11:13:50;;;;;;;11.88;4.97;;;;;;;22.54;41.49;101228.66;1680832;85;21009;-70
2021/06/14 11:16:16;;;;;;;11.10;5.72;;;;;;;22.56;41.50;101222.45;1681179;85;21029;-70
2021/06/14 11:18:43;;;;;;;10.50;5.95;;;;;;;22.63;41.58;101216.41;1680871;85;21066;-70
2021/06/14 11:21:18;;;;;;;11.33;6.12;;;;;;;22.76;41.75;101211.65;1681252;85;21727;-70
2021/06/14 11:23:48;;;;;;;12.13;6.55;;;;;;;22.88;41.87;101203.55;1681063;85;21758;-70
2021/06/14 11:26:28;;;;;;;16.85;6.37;;;;;;;22.87;41.94;101199.16;1681133;85;21033;-70
2021/06/14 11:28:55;;;;;;;14.65;6.42;;;;;;;22.72;41.89;101199.59;1681210;85;21105;-70
2021/06/14 11:31:27;;;;;;;11.20;5.90;;;;;;;22.54;41.88;101194.68;1688045;84;20933;-70
2021/06/14 11:33:58;;;;;;;7.78;4.92;;;;;;;22.58;41.89;101194.53;1690080;84;21041;-70
2021/06/14 11:36:31;;;;;;;11.68;6.00;;;;;;;22.76;41.97;101183.64;1681747;84;21592;-70
2021/06/14 11:38:59;;;;;;;9.10;5.45;;;;;;;23.01;41.92;101188.38;1706128;84;20939;-70